Time;durP1;ratioP1;P1;durP2;ratioP2;P2;SDS_P1;SDS_P2;PMS_P1;PMS_P2;Temp;Humidity;BMP_temperature;BMP_pressure;BME280_temperature;BME280_humidity;BME280_pressure;Samples;Min_cycle;Max_cycle;Signal;HPM_P1;HPM_P2
2021/07/16 00:01:36;;;;;;;6.90;6.40;;;21.10;1.00;;;;;;5128628;27;20190;-57
2021/07/16 00:04:02;;;;;;;7.40;6.80;;;21.20;1.00;;;;;;5129995;27;20522;-57
2021/07/16 00:06:28;;;;;;;6.97;6.47;;;21.20;1.00;;;;;;5130127;27;20449;-57
2021/07/16 00:08:54;;;;;;;8.13;7.33;;;21.10;1.00;;;;;;5127499;27;20827;-58
2021/07/16 00:11:19;;;;;;;7.53;6.90;;;21.10;1.00;;;;;;5126811;27;20721;-57
2021/07/16 00:13:45;;;;;;;8.37;7.57;;;21.10;1.00;;;;;;5126640;27;20269;-58
2021/07/16 00:16:10;;;;;;;9.13;7.37;;;21.10;1.00;;;;;;5127245;27;20185;-56
2021/07/16 00:18:36;;;;;;;8.83;8.00;;;21.10;1.00;;;;;;5127515;27;20273;-58
2021/07/16 00:21:02;;;;;;;7.43;6.83;;;21.10;1.00;;;;;;5130019;27;20185;-58
2021/07/16 00:23:28;;;;;;;8.47;7.77;;;21.00;1.00;;;;;;5129922;27;20558;-58
2021/07/16 00:25:55;;;;;;;8.47;7.77;;;21.10;1.00;;;;;;5127295;27;20439;-57
2021/07/16 00:28:20;;;;;;;8.70;7.90;;;21.00;1.00;;;;;;5130744;27;20192;-58
2021/07/16 00:30:46;;;;;;;8.30;7.60;;;21.10;1.00;;;;;;5130130;27;20439;-59
2021/07/16 00:33:12;;;;;;;7.50;6.80;;;21.10;1.00;;;;;;5126321;27;20640;-57
2021/07/16 00:35:37;;;;;;;7.93;7.23;;;21.00;1.00;;;;;;5130385;27;20196;-58
2021/07/16 00:38:03;;;;;;;8.93;7.90;;;21.00;1.00;;;;;;5126670;27;20181;-57
2021/07/16 00:40:29;;;;;;;7.80;7.10;;;20.90;1.00;;;;;;5128844;27;20521;-57
2021/07/16 00:42:54;;;;;;;8.37;7.67;;;20.90;1.00;;;;;;5108252;27;20194;-57
2021/07/16 00:45:21;;;;;;;8.23;7.53;;;20.90;1.00;;;;;;5110628;27;20195;-57
2021/07/16 00:47:47;;;;;;;8.03;7.40;;;20.90;1.00;;;;;;5126293;27;20181;-57
2021/07/16 00:50:26;;;;;;;8.00;7.30;;;20.90;1.00;;;;;;5130156;27;20467;-57
2021/07/16 00:52:53;;;;;;;9.03;8.20;;;20.90;1.00;;;;;;5126772;27;20986;-57
2021/07/16 00:55:19;;;;;;;8.40;7.70;;;20.90;1.00;;;;;;5127633;27;20446;-58
2021/07/16 00:57:45;;;;;;;8.90;8.10;;;20.90;1.00;;;;;;5125726;27;20824;-58
2021/07/16 01:00:11;;;;;;;8.60;7.70;;;21.00;1.00;;;;;;5129454;27;20306;-59
2021/07/16 01:02:37;;;;;;;7.97;7.37;;;20.90;1.00;;;;;;5126488;27;20443;-57
2021/07/16 01:05:05;;;;;;;7.70;7.10;;;20.90;1.00;;;;;;5127693;27;20763;-58
2021/07/16 01:07:31;;;;;;;8.93;8.17;;;20.80;1.00;;;;;;5129848;27;20526;-56
2021/07/16 01:09:57;;;;;;;7.13;6.37;;;20.80;1.00;;;;;;5124270;27;20449;-57
2021/07/16 01:12:23;;;;;;;7.90;6.80;;;20.40;1.00;;;;;;5126474;27;20208;-57
2021/07/16 01:14:49;;;;;;;7.10;6.30;;;20.80;1.00;;;;;;5127170;27;20172;-57
2021/07/16 01:17:15;;;;;;;7.47;6.87;;;20.80;1.00;;;;;;5108803;27;20952;-57
2021/07/16 01:20:20;;;;;;;7.83;7.10;;;20.80;1.00;;;;;;5129078;27;20492;-56
2021/07/16 01:22:46;;;;;;;7.63;6.90;;;20.80;1.00;;;;;;5127379;27;20465;-57
2021/07/16 01:25:23;;;;;;;7.67;7.07;;;20.70;1.00;;;;;;5127729;27;21068;-57
2021/07/16 01:27:52;;;;;;;7.53;6.93;;;20.70;1.00;;;;;;5133934;27;20439;-58
2021/07/16 01:30:21;;;;;;;8.63;7.83;;;20.60;1.00;;;;;;5123480;27;20935;-58
2021/07/16 01:32:48;;;;;;;8.07;7.37;;;20.60;1.00;;;;;;5124114;27;20824;-57
2021/07/16 01:35:14;;;;;;;7.30;6.80;;;20.60;1.00;;;;;;5107762;28;20454;-58
2021/07/16 01:37:41;;;;;;;8.10;7.40;;;20.50;1.00;;;;;;5129571;27;20443;-56
2021/07/16 01:40:10;;;;;;;8.40;7.60;;;20.40;1.00;;;;;;5122310;27;20470;-58
2021/07/16 01:42:39;;;;;;;8.30;7.50;;;20.40;1.00;;;;;;5124274;27;20539;-59
2021/07/16 01:45:13;;;;;;;7.77;7.03;;;20.50;1.00;;;;;;5108154;27;20438;-59
2021/07/16 01:47:52;;;;;;;8.10;7.47;;;20.40;1.00;;;;;;5105161;27;20542;-59
2021/07/16 01:50:19;;;;;;;8.10;7.30;;;20.40;1.00;;;;;;5125443;27;20526;-58
2021/07/16 01:52:46;;;;;;;9.63;7.77;;;20.50;1.00;;;;;;5123752;27;20550;-56
2021/07/16 01:55:13;;;;;;;9.10;7.70;;;20.40;1.00;;;;;;5127402;27;20453;-58
2021/07/16 01:57:39;;;;;;;8.33;7.63;;;20.40;1.00;;;;;;5130790;27;20491;-57
2021/07/16 02:00:10;;;;;;;9.97;7.87;;;20.40;1.00;;;;;;5128147;27;20421;-57
2021/07/16 02:02:44;;;;;;;8.20;7.40;;;20.30;1.00;;;;;;5128228;27;20497;-57
2021/07/16 02:05:10;;;;;;;8.77;8.07;;;20.30;1.00;;;;;;5126651;27;20449;-57
2021/07/16 02:07:36;;;;;;;8.60;7.83;;;20.30;1.00;;;;;;5132295;27;20441;-58
2021/07/16 02:10:02;;;;;;;8.43;7.73;;;20.30;1.00;;;;;;5130701;27;20355;-59
2021/07/16 02:12:27;;;;;;;8.17;7.50;;;20.20;1.00;;;;;;5123838;27;20205;-58
2021/07/16 02:14:53;;;;;;;8.57;7.67;;;20.20;1.00;;;;;;5131943;27;20438;-57
2021/07/16 02:17:18;;;;;;;7.90;7.17;;;20.20;1.00;;;;;;5130539;27;20216;-56
2021/07/16 02:19:44;;;;;;;8.93;8.23;;;20.20;1.00;;;;;;5132522;27;20268;-56
2021/07/16 02:22:10;;;;;;;8.40;7.70;;;20.20;1.00;;;;;;5130709;27;20186;-58
2021/07/16 02:24:35;;;;;;;8.40;7.70;;;20.60;1.00;;;;;;5113480;27;20703;-57
2021/07/16 02:27:04;;;;;;;8.00;7.40;;;20.10;1.00;;;;;;5131357;27;20528;-58
2021/07/16 02:29:30;;;;;;;10.90;7.57;;;20.20;1.00;;;;;;5132979;27;20748;-58
2021/07/16 02:31:55;;;;;;;9.03;8.13;;;20.10;1.00;;;;;;5129579;27;20569;-59
2021/07/16 02:34:21;;;;;;;8.07;7.47;;;20.70;1.00;;;;;;5128949;27;20173;-58
2021/07/16 02:36:48;;;;;;;7.93;7.33;;;20.00;1.00;;;;;;5127479;27;20587;-57
2021/07/16 02:39:13;;;;;;;9.03;8.30;;;20.10;1.00;;;;;;5129141;27;20638;-56
2021/07/16 02:41:39;;;;;;;8.53;7.73;;;20.00;1.00;;;;;;5131529;27;21135;-58
2021/07/16 02:44:05;;;;;;;8.77;7.97;;;20.00;1.00;;;;;;5130750;27;20185;-57
2021/07/16 02:46:30;;;;;;;8.90;8.20;;;20.00;1.00;;;;;;5128049;27;20189;-57
2021/07/16 02:48:56;;;;;;;8.57;7.87;;;20.00;1.00;;;;;;5127825;27;20449;-57
2021/07/16 02:51:21;;;;;;;8.83;8.03;;;20.00;1.00;;;;;;5130664;27;20247;-58
2021/07/16 02:53:47;;;;;;;9.23;8.33;;;20.00;1.00;;;;;;5130893;27;20181;-58
2021/07/16 02:56:13;;;;;;;8.83;8.13;;;19.90;1.00;;;;;;5127764;27;20212;-58
2021/07/16 02:58:39;;;;;;;9.13;8.30;;;19.90;1.00;;;;;;5131317;27;20189;-58
2021/07/16 03:01:04;;;;;;;8.63;7.93;;;19.90;1.00;;;;;;5130384;27;20445;-57
2021/07/16 03:03:30;;;;;;;11.23;9.23;;;19.90;1.00;;;;;;5129244;27;20674;-56
2021/07/16 03:05:55;;;;;;;9.10;8.30;;;19.90;1.00;;;;;;5131929;27;20207;-58
2021/07/16 03:08:21;;;;;;;9.33;8.57;;;19.90;1.00;;;;;;5124113;27;20297;-58
2021/07/16 03:10:46;;;;;;;9.17;8.37;;;19.90;1.00;;;;;;5129306;27;20194;-58
2021/07/16 03:13:15;;;;;;;8.83;7.83;;;19.90;1.00;;;;;;5127812;27;20189;-56
2021/07/16 03:15:41;;;;;;;9.90;8.90;;;19.90;1.00;;;;;;5131416;27;20185;-58
2021/07/16 03:18:07;;;;;;;9.80;9.00;;;19.90;1.00;;;;;;5130551;27;20439;-56
2021/07/16 03:20:39;;;;;;;8.87;7.93;;;19.90;1.00;;;;;;5125811;27;21017;-57
2021/07/16 03:23:06;;;;;;;10.10;9.13;;;19.90;1.00;;;;;;5131397;27;20927;-57
2021/07/16 03:25:33;;;;;;;8.80;8.10;;;19.90;1.00;;;;;;5131862;27;20446;-57
2021/07/16 03:27:58;;;;;;;10.07;9.17;;;19.90;1.00;;;;;;5127002;27;20527;-57
2021/07/16 03:30:30;;;;;;;9.87;8.87;;;19.90;1.00;;;;;;5130721;27;20439;-58
2021/07/16 03:32:56;;;;;;;10.70;9.30;;;19.90;1.00;;;;;;5130576;27;20271;-58
2021/07/16 03:35:22;;;;;;;9.63;8.73;;;19.80;1.00;;;;;;5130413;27;20516;-58
2021/07/16 03:37:48;;;;;;;9.10;8.40;;;19.80;1.00;;;;;;5130717;27;20435;-57
2021/07/16 03:40:17;;;;;;;9.73;8.97;;;19.80;1.00;;;;;;5129668;27;20764;-57
2021/07/16 03:42:43;;;;;;;9.27;8.47;;;19.70;1.00;;;;;;5128769;27;20413;-58
2021/07/16 03:45:12;;;;;;;10.40;9.30;;;19.80;1.00;;;;;;5123850;27;20434;-57
2021/07/16 03:47:42;;;;;;;9.70;8.77;;;19.80;1.00;;;;;;5129119;27;20446;-57
2021/07/16 03:50:12;;;;;;;9.27;8.50;;;19.80;1.00;;;;;;5131267;27;20470;-58
2021/07/16 03:52:38;;;;;;;11.13;10.03;;;19.80;1.00;;;;;;5128558;27;20474;-58
2021/07/16 03:55:06;;;;;;;9.47;8.67;;;19.80;1.00;;;;;;5126709;27;20439;-57
2021/07/16 03:57:32;;;;;;;12.77;8.57;;;19.80;1.00;;;;;;5112010;27;20435;-58
2021/07/16 04:00:02;;;;;;;9.40;8.70;;;19.90;1.00;;;;;;5144111;27;20934;-57
2021/07/16 04:02:28;;;;;;;9.23;8.53;;;19.80;1.00;;;;;;5108664;27;20937;-57
2021/07/16 04:04:54;;;;;;;9.07;8.17;;;19.80;1.00;;;;;;5128695;27;20435;-57
2021/07/16 04:07:25;;;;;;;8.97;8.10;;;19.90;1.00;;;;;;5107222;27;20268;-58
2021/07/16 04:09:51;;;;;;;8.70;8.00;;;19.90;1.00;;;;;;5126886;27;20439;-57
2021/07/16 04:12:20;;;;;;;9.47;8.40;;;22.00;1.00;;;;;;5125997;27;20544;-55
2021/07/16 04:14:50;;;;;;;9.03;8.23;;;19.90;1.00;;;;;;5127158;27;20173;-56
2021/07/16 04:17:25;;;;;;;10.50;7.57;;;20.00;1.00;;;;;;5127869;27;20457;-57
2021/07/16 04:19:51;;;;;;;9.03;8.23;;;20.00;1.00;;;;;;5130597;27;20409;-57
2021/07/16 04:22:19;;;;;;;7.90;7.30;;;20.00;1.00;;;;;;5125850;27;20440;-57
2021/07/16 04:24:45;;;;;;;9.87;8.80;;;20.00;1.00;;;;;;5124808;27;20460;-57
2021/07/16 04:27:12;;;;;;;8.87;7.97;;;20.00;1.00;;;;;;5122259;27;20445;-56
2021/07/16 04:29:39;;;;;;;8.53;7.83;;;20.20;1.00;;;;;;5129438;27;21006;-57
2021/07/16 04:32:06;;;;;;;9.30;8.50;;;20.20;1.00;;;;;;5130601;27;20489;-56
2021/07/16 04:34:34;;;;;;;8.83;8.00;;;20.30;1.00;;;;;;5112142;27;20998;-56
2021/07/16 04:37:00;;;;;;;8.73;7.97;;;20.30;1.00;;;;;;5122745;27;20764;-56
2021/07/16 04:39:26;;;;;;;11.97;9.00;;;20.40;1.00;;;;;;5130336;27;20496;-56
2021/07/16 04:41:52;;;;;;;9.10;8.23;;;20.60;1.00;;;;;;5130297;27;20765;-55
2021/07/16 04:44:18;;;;;;;8.50;7.70;;;20.60;1.00;;;;;;5128695;27;20476;-57
2021/07/16 04:46:44;;;;;;;9.43;7.63;;;20.70;1.00;;;;;;5124578;27;20418;-59
2021/07/16 04:49:09;;;;;;;8.97;8.00;;;20.70;1.00;;;;;;5133165;27;20196;-57
2021/07/16 04:51:36;;;;;;;7.80;7.07;;;20.80;1.00;;;;;;5129463;27;20296;-57
2021/07/16 04:54:03;;;;;;;7.93;7.27;;;20.90;1.00;;;;;;5128555;27;20249;-57
2021/07/16 04:56:29;;;;;;;9.17;7.60;;;20.90;1.00;;;;;;5129651;27;20489;-57
2021/07/16 04:58:55;;;;;;;7.93;7.13;;;20.90;1.00;;;;;;5133022;27;20464;-56
2021/07/16 05:01:24;;;;;;;8.00;7.30;;;20.90;1.00;;;;;;5137148;27;20193;-57
2021/07/16 05:03:51;;;;;;;9.33;7.00;;;21.00;1.00;;;;;;5130698;27;20417;-56
2021/07/16 05:06:18;;;;;;;9.20;7.20;;;21.10;1.00;;;;;;5113642;27;20529;-56
2021/07/16 05:08:44;;;;;;;7.40;6.70;;;21.20;1.00;;;;;;5135009;27;20476;-58
2021/07/16 05:11:10;;;;;;;11.00;7.03;;;21.30;1.00;;;;;;5127633;27;20459;-57
2021/07/16 05:13:37;;;;;;;10.27;7.57;;;21.40;1.00;;;;;;5105710;27;20445;-58
2021/07/16 05:16:03;;;;;;;7.90;7.10;;;21.40;1.00;;;;;;5129584;27;20447;-57
2021/07/16 05:18:29;;;;;;;6.63;5.93;;;21.40;1.00;;;;;;5129459;27;20462;-57
2021/07/16 05:20:55;;;;;;;7.20;6.23;;;21.60;1.00;;;;;;5127528;27;20435;-58
2021/07/16 05:23:21;;;;;;;7.47;6.77;;;21.60;1.00;;;;;;5128803;27;20429;-57
2021/07/16 05:25:46;;;;;;;6.53;6.03;;;21.60;1.00;;;;;;5129989;27;20583;-58
2021/07/16 05:28:12;;;;;;;7.63;6.90;;;23.20;1.00;;;;;;5131577;27;20572;-58
2021/07/16 05:30:37;;;;;;;6.40;5.80;;;21.90;1.00;;;;;;5131127;27;20165;-58
2021/07/16 05:33:03;;;;;;;7.53;6.83;;;21.90;1.00;;;;;;5133025;27;20209;-57
2021/07/16 05:35:28;;;;;;;7.50;6.90;;;21.90;1.00;;;;;;5111134;27;20239;-57
2021/07/16 05:37:54;;;;;;;11.20;7.60;;;22.00;1.00;;;;;;5142315;27;20213;-56
2021/07/16 05:40:20;;;;;;;7.70;6.90;;;22.10;1.00;;;;;;5130698;27;20181;-57
2021/07/16 05:42:45;;;;;;;7.07;6.30;;;22.20;1.00;;;;;;5133969;27;20181;-58
2021/07/16 05:45:11;;;;;;;7.60;6.90;;;22.20;1.00;;;;;;5133274;27;20184;-57
2021/07/16 05:47:37;;;;;;;6.30;5.80;;;22.30;1.00;;;;;;5133374;27;20192;-57
2021/07/16 05:50:03;;;;;;;9.70;7.30;;;22.30;1.00;;;;;;5132249;27;20439;-57
2021/07/16 05:52:32;;;;;;;6.80;6.17;;;22.40;1.00;;;;;;5132014;27;20204;-57
2021/07/16 05:54:57;;;;;;;6.60;6.10;;;22.40;1.00;;;;;;5132961;27;20492;-57
2021/07/16 05:57:23;;;;;;;6.47;5.87;;;22.50;1.00;;;;;;5131995;27;20438;-57
2021/07/16 05:59:49;;;;;;;6.53;5.93;;;22.60;1.00;;;;;;5133113;27;20413;-58
2021/07/16 06:02:14;;;;;;;6.63;6.03;;;22.60;1.00;;;;;;5131010;27;20184;-58
2021/07/16 06:04:40;;;;;;;11.33;6.43;;;22.60;1.00;;;;;;5132038;27;20236;-57
2021/07/16 06:07:05;;;;;;;6.37;5.87;;;22.60;1.00;;;;;;5131475;27;20213;-58
2021/07/16 06:09:31;;;;;;;8.70;7.43;;;22.80;1.00;;;;;;5131340;27;20185;-58
2021/07/16 06:11:56;;;;;;;7.13;5.87;;;22.70;1.00;;;;;;5128478;27;20734;-57
2021/07/16 06:14:22;;;;;;;7.73;5.77;;;23.10;1.00;;;;;;5129189;27;20177;-59
2021/07/16 06:16:52;;;;;;;5.93;5.43;;;23.30;1.00;;;;;;5129280;27;20282;-57
2021/07/16 06:19:18;;;;;;;5.73;5.23;;;23.30;1.00;;;;;;5132964;27;20407;-58
2021/07/16 06:21:43;;;;;;;6.77;6.10;;;23.30;1.00;;;;;;5132811;27;20927;-57
2021/07/16 06:24:09;;;;;;;5.33;4.87;;;23.30;1.00;;;;;;5132327;27;20441;-57
2021/07/16 06:26:35;;;;;;;6.57;5.50;;;23.20;1.00;;;;;;5132314;27;20197;-59
2021/07/16 06:29:02;;;;;;;8.90;4.83;;;23.40;1.00;;;;;;5131024;27;20177;-58
2021/07/16 06:31:28;;;;;;;7.20;4.60;;;23.90;1.00;;;;;;5128311;27;20824;-59
2021/07/16 06:33:53;;;;;;;6.67;4.53;;;24.30;1.00;;;;;;5131491;27;20443;-58
2021/07/16 06:36:19;;;;;;;6.47;4.50;;;24.30;1.00;;;;;;5130268;27;20646;-57
2021/07/16 06:38:44;;;;;;;6.10;4.43;;;24.40;1.00;;;;;;5095145;27;20185;-58
2021/07/16 06:41:10;;;;;;;4.60;4.20;;;24.60;1.00;;;;;;5126703;27;20183;-59
2021/07/16 06:43:36;;;;;;;5.53;4.77;;;24.70;1.00;;;;;;5129500;27;20349;-58
2021/07/16 06:46:01;;;;;;;8.43;4.83;;;24.90;1.00;;;;;;5130973;27;20181;-59
2021/07/16 06:48:27;;;;;;;8.63;4.50;;;24.80;1.00;;;;;;5127134;27;20194;-58
2021/07/16 06:50:52;;;;;;;7.20;4.10;;;25.00;1.00;;;;;;5126593;27;20273;-58
2021/07/16 06:53:18;;;;;;;8.13;4.17;;;25.10;1.00;;;;;;5132541;27;20650;-59
2021/07/16 06:55:43;;;;;;;6.17;4.67;;;25.10;1.00;;;;;;5131297;27;20266;-58
2021/07/16 06:58:09;;;;;;;5.77;4.20;;;25.10;1.00;;;;;;5129606;27;21596;-58
2021/07/16 07:00:34;;;;;;;7.00;4.33;;;25.30;1.00;;;;;;5130939;27;20185;-60
2021/07/16 07:03:01;;;;;;;4.57;3.87;;;25.30;1.00;;;;;;5131768;27;20186;-58
2021/07/16 07:05:27;;;;;;;6.60;4.40;;;25.30;1.00;;;;;;5131747;27;20185;-57
2021/07/16 07:07:53;;;;;;;6.10;4.60;;;25.70;1.00;;;;;;5128461;27;20414;-57
2021/07/16 07:10:19;;;;;;;5.17;3.93;;;;;;;;;;5131543;27;20480;-57
2021/07/16 07:12:45;;;;;;;4.57;4.20;;;25.70;1.00;;;;;;5131642;27;20205;-58
2021/07/16 07:15:11;;;;;;;6.23;3.93;;;25.70;1.00;;;;;;5113604;27;20694;-57
2021/07/16 07:17:38;;;;;;;4.03;3.73;;;25.90;1.00;;;;;;5133179;27;20188;-58
2021/07/16 07:20:05;;;;;;;4.63;3.93;;;25.90;1.00;;;;;;5131195;27;20954;-57
2021/07/16 07:22:30;;;;;;;4.27;3.87;;;26.20;1.00;;;;;;5132447;27;20435;-58
2021/07/16 07:24:56;;;;;;;4.63;4.00;;;26.10;1.00;;;;;;5132380;27;20405;-57
2021/07/16 07:27:22;;;;;;;4.50;4.10;;;26.40;1.00;;;;;;5130785;27;20220;-59
2021/07/16 07:29:47;;;;;;;4.80;3.83;;;29.10;1.00;;;;;;5126531;27;20216;-58
2021/07/16 07:32:13;;;;;;;5.37;4.10;;;26.80;1.00;;;;;;5129164;27;20284;-58
2021/07/16 07:34:39;;;;;;;3.80;3.40;;;26.80;1.00;;;;;;5132542;27;20260;-58
2021/07/16 07:37:05;;;;;;;5.77;3.47;;;26.80;1.00;;;;;;5131953;27;20462;-57
2021/07/16 07:39:31;;;;;;;6.63;3.50;;;26.80;1.00;;;;;;5131918;27;20401;-59
2021/07/16 07:41:57;;;;;;;5.20;3.90;;;26.70;1.00;;;;;;5130729;27;20342;-58
2021/07/16 07:44:22;;;;;;;5.53;3.43;;;26.80;1.00;;;;;;5131323;27;20173;-60
2021/07/16 07:46:48;;;;;;;7.53;3.90;;;26.80;1.00;;;;;;5110485;27;20549;-58
2021/07/16 07:49:14;;;;;;;4.90;4.23;;;26.90;1.00;;;;;;5111263;27;20169;-58
2021/07/16 07:51:40;;;;;;;3.93;3.50;;;26.90;1.00;;;;;;5130796;27;20239;-58
2021/07/16 07:54:06;;;;;;;6.70;3.57;;;26.90;1.00;;;;;;5134661;27;20185;-58
2021/07/16 07:56:33;;;;;;;4.07;3.50;;;26.80;1.00;;;;;;5114078;27;20430;-58
2021/07/16 07:59:00;;;;;;;4.63;4.07;;;26.70;1.00;;;;;;5114151;27;20402;-58
2021/07/16 08:01:26;;;;;;;5.50;3.63;;;26.60;1.00;;;;;;5128434;27;20440;-58
2021/07/16 08:03:52;;;;;;;6.40;3.53;;;26.80;1.00;;;;;;5128710;27;20438;-58
2021/07/16 08:06:17;;;;;;;4.07;3.73;;;26.50;1.00;;;;;;5130724;27;20273;-59
2021/07/16 08:08:43;;;;;;;4.87;3.87;;;26.50;1.00;;;;;;5129733;27;20181;-58
2021/07/16 08:11:09;;;;;;;5.60;3.83;;;26.60;1.00;;;;;;5130011;27;20237;-58
2021/07/16 08:13:35;;;;;;;4.37;3.97;;;26.90;1.00;;;;;;5134551;27;20433;-58
2021/07/16 08:16:01;;;;;;;5.23;3.80;;;27.30;1.00;;;;;;5123130;27;20188;-58
2021/07/16 08:18:28;;;;;;;4.20;3.90;;;27.40;1.00;;;;;;5129969;27;20401;-58
2021/07/16 08:20:57;;;;;;;4.70;4.30;;;27.30;1.00;;;;;;5129223;27;20695;-58
2021/07/16 08:23:23;;;;;;;5.10;3.90;;;27.30;1.00;;;;;;5130261;27;20410;-58
2021/07/16 08:25:49;;;;;;;3.83;3.40;;;27.30;1.00;;;;;;5131000;27;20421;-58
2021/07/16 08:28:14;;;;;;;4.00;3.60;;;27.40;1.00;;;;;;5131236;27;20413;-59
2021/07/16 08:30:40;;;;;;;4.83;4.33;;;27.10;1.00;;;;;;5132943;27;20191;-58
2021/07/16 08:33:06;;;;;;;4.80;4.40;;;27.10;1.00;;;;;;5135789;27;20221;-59
2021/07/16 08:35:32;;;;;;;5.00;4.30;;;27.30;1.00;;;;;;5131198;27;20698;-58
2021/07/16 08:37:59;;;;;;;3.83;3.63;;;27.40;1.00;;;;;;5135306;27;20173;-57
2021/07/16 08:40:25;;;;;;;4.70;4.30;;;27.10;1.00;;;;;;5132355;27;20176;-57
2021/07/16 08:42:51;;;;;;;3.70;3.40;;;27.00;1.00;;;;;;5126995;27;20421;-58
2021/07/16 08:45:17;;;;;;;6.20;3.83;;;27.20;1.00;;;;;;5129077;27;20185;-58
2021/07/16 08:47:44;;;;;;;4.63;3.97;;;27.40;1.00;;;;;;5126663;27;20499;-58
2021/07/16 08:50:12;;;;;;;4.60;4.17;;;27.50;1.00;;;;;;5130945;27;20909;-58
2021/07/16 08:52:40;;;;;;;4.70;3.87;;;27.70;1.00;;;;;;5126610;27;21100;-59
2021/07/16 08:55:07;;;;;;;4.00;3.33;;;27.70;1.00;;;;;;5126069;27;20413;-59
2021/07/16 08:57:32;;;;;;;4.43;4.03;;;27.60;1.00;;;;;;5130851;27;20432;-58
2021/07/16 08:59:58;;;;;;;5.40;3.63;;;27.80;1.00;;;;;;5133939;27;20438;-58
2021/07/16 09:02:29;;;;;;;4.07;3.70;;;28.10;1.00;;;;;;5128199;27;20178;-58
2021/07/16 09:05:00;;;;;;;4.40;4.00;;;28.00;1.00;;;;;;5130942;27;20184;-58
2021/07/16 09:07:26;;;;;;;5.00;4.60;;;28.00;1.00;;;;;;5128145;27;20505;-59
2021/07/16 09:10:04;;;;;;;4.93;3.83;;;28.20;1.00;;;;;;5127631;27;20449;-58
2021/07/16 09:12:35;;;;;;;4.43;3.13;;;28.30;1.00;;;;;;5130516;27;20532;-58
2021/07/16 09:15:00;;;;;;;4.70;4.07;;;28.10;1.00;;;;;;5127707;27;20409;-58
2021/07/16 09:17:27;;;;;;;5.27;4.30;;;28.20;1.00;;;;;;5127865;27;20878;-59
2021/07/16 09:19:52;;;;;;;5.53;4.13;;;27.90;1.00;;;;;;5140132;27;20208;-56
2021/07/16 09:22:23;;;;;;;4.50;4.10;;;28.10;1.00;;;;;;5130657;27;20860;-59
2021/07/16 09:24:54;;;;;;;4.27;3.90;;;28.60;1.00;;;;;;5130502;27;20264;-58
2021/07/16 09:27:37;;;;;;;4.43;4.07;;;28.70;1.00;;;;;;5131397;27;20902;-58
2021/07/16 09:30:11;;;;;;;6.30;3.80;;;28.40;1.00;;;;;;5131212;27;20409;-59
2021/07/16 09:32:42;;;;;;;4.10;3.80;;;28.50;1.00;;;;;;5131316;27;20988;-58
2021/07/16 09:35:08;;;;;;;5.23;4.83;;;28.40;1.00;;;;;;5130803;27;20425;-58
2021/07/16 09:37:47;;;;;;;4.20;3.90;;;28.50;1.00;;;;;;5131314;27;20409;-58
2021/07/16 09:40:23;;;;;;;4.43;4.03;;;28.40;1.00;;;;;;5131268;27;20401;-58
2021/07/16 09:43:01;;;;;;;5.30;3.30;;;28.50;1.00;;;;;;5112930;27;20436;-57
2021/07/16 09:45:26;;;;;;;4.97;3.90;;;28.80;1.00;;;;;;5110488;27;20437;-58
2021/07/16 09:47:52;;;;;;;4.50;4.10;;;29.00;1.00;;;;;;5125961;27;20415;-59
2021/07/16 09:50:20;;;;;;;6.50;4.13;;;29.10;1.00;;;;;;5129596;27;20217;-58
2021/07/16 09:52:46;;;;;;;4.07;3.80;;;28.90;1.00;;;;;;5130669;27;20201;-58
2021/07/16 09:55:16;;;;;;;4.00;3.70;;;28.90;1.00;;;;;;5112702;27;20428;-59
2021/07/16 09:57:47;;;;;;;4.53;4.10;;;28.90;1.00;;;;;;5131221;27;20209;-58
2021/07/16 10:00:23;;;;;;;3.87;3.57;;;29.00;1.00;;;;;;5112814;27;20427;-58
2021/07/16 10:03:00;;;;;;;3.90;3.60;;;29.10;1.00;;;;;;5131166;27;20766;-59
2021/07/16 10:05:26;;;;;;;5.93;3.87;;;29.10;1.00;;;;;;5130893;27;20427;-58
2021/07/16 10:07:52;;;;;;;4.17;3.77;;;29.30;1.00;;;;;;5128042;27;20428;-59
2021/07/16 10:10:22;;;;;;;4.20;3.63;;;29.20;1.00;;;;;;5130870;27;20449;-58
2021/07/16 10:12:49;;;;;;;4.77;4.37;;;29.30;1.00;;;;;;5133777;27;20500;-58
2021/07/16 10:15:23;;;;;;;5.43;4.60;;;29.90;1.00;;;;;;5134670;27;20409;-59
2021/07/16 10:17:49;;;;;;;4.33;3.93;;;30.10;1.00;;;;;;5134885;27;20431;-58
2021/07/16 10:20:17;;;;;;;4.13;3.73;;;30.00;1.00;;;;;;5134474;27;20410;-58
2021/07/16 10:22:44;;;;;;;6.57;4.13;;;30.00;1.00;;;;;;5116099;27;20499;-59
2021/07/16 10:25:15;;;;;;;4.57;4.17;;;29.60;1.00;;;;;;5130469;27;20438;-58
2021/07/16 10:27:42;;;;;;;8.33;4.10;;;29.70;1.00;;;;;;5155126;27;20791;-59
2021/07/16 10:30:19;;;;;;;4.87;4.03;;;29.20;1.00;;;;;;5155158;27;20960;-57
2021/07/16 10:32:46;;;;;;;4.00;3.70;;;29.30;1.00;;;;;;5154918;27;20822;-58
2021/07/16 10:35:47;;;;;;;4.43;3.73;;;29.40;1.00;;;;;;5155135;27;20403;-58
2021/07/16 10:38:50;;;;;;;5.43;4.10;;;29.30;1.00;;;;;;5031422;28;20991;-59
2021/07/16 10:41:35;;;;;;;3.97;3.67;;;29.50;1.00;;;;;;5050398;28;20795;-58
2021/07/16 10:44:01;;;;;;;4.30;4.00;;;29.70;1.00;;;;;;5129185;27;20434;-58
2021/07/16 10:46:30;;;;;;;5.30;4.80;;;30.10;1.00;;;;;;5133906;27;20772;-58
2021/07/16 10:48:56;;;;;;;6.03;4.53;;;30.20;1.00;;;;;;5134100;27;20178;-57
2021/07/16 10:51:25;;;;;;;5.20;4.80;;;29.80;1.00;;;;;;5133773;27;20466;-58
2021/07/16 10:53:51;;;;;;;5.63;4.80;;;29.90;1.00;;;;;;5133865;27;20445;-59
2021/07/16 10:56:18;;;;;;;6.37;4.90;;;30.20;1.00;;;;;;5133742;27;20978;-59
2021/07/16 10:58:45;;;;;;;5.13;4.63;;;30.30;1.00;;;;;;5133371;27;20526;-59
2021/07/16 11:01:13;;;;;;;5.87;5.27;;;30.10;1.00;;;;;;5115481;27;20431;-59
2021/07/16 11:03:52;;;;;;;7.30;5.00;;;30.20;1.00;;;;;;5133560;27;20803;-58
2021/07/16 11:06:19;;;;;;;5.77;5.27;;;30.10;1.00;;;;;;5115681;27;20427;-59
2021/07/16 11:08:44;;;;;;;6.63;6.13;;;30.70;1.00;;;;;;5132403;27;20442;-58
2021/07/16 11:11:16;;;;;;;8.20;7.50;;;31.20;1.00;;;;;;5133508;27;20751;-58
2021/07/16 11:13:45;;;;;;;7.70;7.10;;;30.90;1.00;;;;;;5133462;27;20174;-58
2021/07/16 11:16:24;;;;;;;7.70;6.60;;;30.40;1.00;;;;;;5133618;27;20423;-58
2021/07/16 11:19:08;;;;;;;8.10;7.30;;;30.20;1.00;;;;;;5133072;27;20491;-58
2021/07/16 11:21:39;;;;;;;8.70;7.80;;;30.20;1.00;;;;;;5133072;27;20389;-59
2021/07/16 11:24:20;;;;;;;12.13;8.50;;;30.30;1.00;;;;;;5132920;27;20401;-59
2021/07/16 11:26:52;;;;;;;8.47;7.67;;;30.10;1.00;;;;;;5133271;27;20919;-57
2021/07/16 11:29:20;;;;;;;11.13;7.20;;;30.00;1.00;;;;;;5135474;27;20433;-58
2021/07/16 11:31:46;;;;;;;7.97;6.30;;;29.80;1.00;;;;;;5152798;27;20500;-60
2021/07/16 11:34:14;;;;;;;7.13;6.53;;;29.70;1.00;;;;;;5133176;27;20438;-58
2021/07/16 11:36:51;;;;;;;8.93;6.90;;;29.80;1.00;;;;;;5127535;27;20178;-59
2021/07/16 11:39:33;;;;;;;7.80;7.10;;;29.70;1.00;;;;;;5128133;27;20482;-59
2021/07/16 11:42:00;;;;;;;7.20;6.57;;;29.80;1.00;;;;;;5133096;27;20408;-58
2021/07/16 11:44:43;;;;;;;6.93;6.40;;;29.70;1.00;;;;;;5132643;27;20442;-57
2021/07/16 11:47:24;;;;;;;6.97;6.37;;;29.80;1.00;;;;;;5132700;27;20910;-58
2021/07/16 11:49:51;;;;;;;6.70;6.20;;;29.80;1.00;;;;;;5132833;27;20405;-59
2021/07/16 11:52:25;;;;;;;6.77;6.17;;;29.90;1.00;;;;;;5132306;27;21040;-57
2021/07/16 11:54:52;;;;;;;7.90;7.20;;;29.90;1.00;;;;;;5132540;27;20898;-58
2021/07/16 11:57:19;;;;;;;5.60;5.20;;;30.10;1.00;;;;;;5132488;27;20431;-58
2021/07/16 11:59:50;;;;;;;6.37;5.77;;;30.20;1.00;;;;;;5132421;27;20463;-58
2021/07/16 12:02:20;;;;;;;7.03;6.53;;;30.00;1.00;;;;;;5132290;27;20413;-59
2021/07/16 12:04:48;;;;;;;6.33;5.73;;;30.00;1.00;;;;;;5132477;27;20837;-59
2021/07/16 12:07:15;;;;;;;6.60;6.07;;;29.80;1.00;;;;;;5131509;27;20449;-59
2021/07/16 12:09:44;;;;;;;5.93;5.53;;;29.40;1.00;;;;;;5128533;27;20443;-59
2021/07/16 12:12:18;;;;;;;6.83;6.07;;;29.30;1.00;;;;;;5131578;27;20485;-58
2021/07/16 12:14:58;;;;;;;6.70;6.20;;;29.60;1.00;;;;;;5112928;27;20937;-57
2021/07/16 12:17:35;;;;;;;7.10;6.37;;;29.90;1.00;;;;;;5128151;27;20502;-59
2021/07/16 12:20:04;;;;;;;6.27;5.77;;;30.30;1.00;;;;;;5129169;27;20408;-58
2021/07/16 12:22:33;;;;;;;6.40;5.67;;;30.70;1.00;;;;;;5152421;27;20416;-59
2021/07/16 12:25:00;;;;;;;7.73;7.03;;;30.90;1.00;;;;;;5133155;27;20530;-59
2021/07/16 12:27:25;;;;;;;7.30;6.70;;;31.00;1.00;;;;;;5131963;27;20428;-58
2021/07/16 12:29:59;;;;;;;7.60;6.97;;;30.60;1.00;;;;;;5132022;27;20447;-58
2021/07/16 12:32:40;;;;;;;8.00;7.20;;;30.60;1.00;;;;;;5131694;27;20205;-58
2021/07/16 12:35:19;;;;;;;8.23;7.43;;;30.50;1.00;;;;;;5131211;27;20432;-58
2021/07/16 12:37:47;;;;;;;8.80;8.10;;;30.40;1.00;;;;;;5111208;27;20450;-59
2021/07/16 12:40:16;;;;;;;9.37;8.57;;;30.60;1.00;;;;;;5130916;27;20412;-57
2021/07/16 12:43:03;;;;;;;9.53;7.97;;;30.60;1.00;;;;;;5131376;27;20421;-57
2021/07/16 12:45:35;;;;;;;7.77;6.97;;;30.60;1.00;;;;;;5113162;27;20527;-58
2021/07/16 12:48:16;;;;;;;8.13;7.40;;;30.30;1.00;;;;;;5131537;27;22112;-59
2021/07/16 12:50:43;;;;;;;8.97;8.17;;;30.60;1.00;;;;;;5131499;27;20496;-58
2021/07/16 12:53:10;;;;;;;9.37;8.10;;;30.70;1.00;;;;;;5131577;27;20543;-58
2021/07/16 12:55:39;;;;;;;8.57;7.97;;;30.60;1.00;;;;;;5131297;27;20425;-58
2021/07/16 12:58:09;;;;;;;9.40;8.47;;;30.60;1.00;;;;;;5112988;27;20474;-58
2021/07/16 13:00:36;;;;;;;8.33;7.63;;;30.60;1.00;;;;;;5131751;27;20441;-59
2021/07/16 13:03:14;;;;;;;8.30;7.50;;;30.40;1.00;;;;;;5131513;27;20427;-58